Terminal Aerodrome Forecast
Issued by NWS St Louis, MO

Home | Current Version | Previous Version | Text Only | Print | Product List | Glossary On
Versions: 1 2 3 4 5 6 7 8 9 10 11 12
000
FTUS43 KLSX 191700
TAFCOU
TAF
KCOU 191738Z 1918/2018 20010KT P6SM SCT250
     FM200100 20007KT P6SM SCT120
     FM200900 25007KT P6SM BKN050=

USA.gov is the U.S. government's official web portal to all federal, state and local government web resources and services.